Time;durP1;ratioP1;P1;durP2;ratioP2;P2;SDS_P1;SDS_P2;PMS_P1;PMS_P2;Temp;Humidity;BMP_temperature;BMP_pressure;BME280_temperature;BME280_humidity;BME280_pressure;Samples;Min_cycle;Max_cycle;Signal;HPM_P1;HPM_P2
2023/04/26 00:02:14;;;;;;;12.10;11.50;;;;;;;;;;5053106;28;20041;-63
2023/04/26 00:04:40;;;;;;;12.93;12.23;;;;;;;;;;5054614;28;20383;-62
2023/04/26 00:07:06;;;;;;;12.32;11.73;;;;;;;;;;5051510;28;20527;-62
2023/04/26 00:09:32;;;;;;;11.98;11.38;;;;;;;;;;5049370;28;20028;-62
2023/04/26 00:11:57;;;;;;;12.55;11.95;;;;;;;;;;5052637;28;20013;-64
2023/04/26 00:14:22;;;;;;;13.10;12.40;;;;;;;;;;5056322;28;20163;-63
2023/04/26 00:16:48;;;;;;;13.10;12.40;;;;;;;;;;5052288;28;20044;-63
2023/04/26 00:19:14;;;;;;;12.93;12.23;;;;;;;;;;5053069;28;20017;-63
2023/04/26 00:21:40;;;;;;;11.95;11.35;;;;;;;;;;5038116;28;20420;-63
2023/04/26 00:24:05;;;;;;;13.20;12.45;;;;;;;;;;5037168;28;20167;-63
2023/04/26 00:26:31;;;;;;;13.07;12.38;;;;;;;;;;5044782;28;20044;-63
2023/04/26 00:28:56;;;;;;;13.05;12.35;;;;;;;;;;5043955;28;20036;-63
2023/04/26 00:31:21;;;;;;;12.88;12.18;;;;;;;;;;5046000;28;20508;-64
2023/04/26 00:33:47;;;;;;;13.02;12.32;;;;;;;;;;5050702;28;20017;-63
2023/04/26 00:36:12;;;;;;;12.40;11.80;;;;;;;;;;5049338;28;20068;-63
2023/04/26 00:38:37;;;;;;;11.88;11.27;;;;;;;;;;5045748;28;20025;-63
2023/04/26 00:41:03;;;;;;;12.48;11.85;;;;;;;;;;5046552;28;20817;-64
2023/04/26 00:43:28;;;;;;;12.68;11.98;;;;;;;;;;5051247;28;20025;-63
2023/04/26 00:45:53;;;;;;;12.73;12.02;;;;;;;;;;5046057;28;20079;-63
2023/04/26 00:48:19;;;;;;;12.20;11.60;;;;;;;;;;5047113;28;20029;-63
2023/04/26 00:50:46;;;;;;;11.95;11.35;;;;;;;;;;5044207;28;20472;-63
2023/04/26 00:53:13;;;;;;;13.05;12.35;;;;;;;;;;5050210;28;20029;-62
2023/04/26 00:55:39;;;;;;;12.05;11.45;;;;;;;;;;5048593;28;20057;-62
2023/04/26 00:58:04;;;;;;;13.75;12.95;;;;;;;;;;5050113;28;20017;-63
2023/04/26 01:00:30;;;;;;;12.15;11.55;;;;;;;;;;5045517;28;20378;-63
2023/04/26 01:02:55;;;;;;;13.35;12.65;;;;;;;;;;5046039;28;20037;-63
2023/04/26 01:05:20;;;;;;;12.63;12.02;;;;;;;;;;5049215;28;20029;-62
2023/04/26 01:07:46;;;;;;;12.90;12.20;;;;;;;;;;5045429;28;20469;-61
2023/04/26 01:10:11;;;;;;;12.52;11.90;;;;;;;;;;5045884;28;20492;-62
2023/04/26 01:12:37;;;;;;;12.68;11.98;;;;;;;;;;5049130;28;20029;-63
2023/04/26 01:15:04;;;;;;;12.90;12.20;;;;;;;;;;5044307;28;20032;-63
2023/04/26 01:17:30;;;;;;;12.10;11.50;;;;;;;;;;5047898;28;20393;-62
2023/04/26 01:19:56;;;;;;;12.95;12.25;;;;;;;;;;5047527;28;20028;-63
2023/04/26 01:22:21;;;;;;;12.40;11.80;;;;;;;;;;5045508;28;20461;-62
2023/04/26 01:24:49;;;;;;;12.27;11.68;;;;;;;;;;5046952;28;20499;-62
2023/04/26 01:27:15;;;;;;;13.60;12.80;;;;;;;;;;5047710;28;20031;-63
2023/04/26 01:29:41;;;;;;;12.20;11.60;;;;;;;;;;5045547;28;20468;-62
2023/04/26 01:32:06;;;;;;;13.18;12.48;;;;;;;;;;5052471;28;20024;-62
2023/04/26 01:34:33;;;;;;;12.80;12.10;;;;;;;;;;5047348;28;20108;-62
2023/04/26 01:36:59;;;;;;;12.48;11.88;;;;;;;;;;5048390;28;20040;-62
2023/04/26 01:39:24;;;;;;;11.85;11.30;;;;;;;;;;5041124;28;20036;-62
2023/04/26 01:41:50;;;;;;;12.07;11.48;;;;;;;;;;5048766;28;20029;-63
2023/04/26 01:44:15;;;;;;;14.10;13.25;;;;;;;;;;5048248;28;20032;-63
2023/04/26 01:46:40;;;;;;;12.95;12.25;;;;;;;;;;5042103;28;20055;-63
2023/04/26 01:49:06;;;;;;;12.38;11.77;;;;;;;;;;5046448;28;20547;-63
2023/04/26 01:51:31;;;;;;;12.50;11.90;;;;;;;;;;5043630;28;20492;-63
2023/04/26 01:53:57;;;;;;;12.52;11.90;;;;;;;;;;5048281;28;20025;-63
2023/04/26 01:56:23;;;;;;;13.00;12.30;;;;;;;;;;5047770;28;20495;-63
2023/04/26 01:58:48;;;;;;;12.45;11.85;;;;;;;;;;5047314;28;20103;-63
2023/04/26 02:01:13;;;;;;;12.88;12.18;;;;;;;;;;5042614;28;20051;-63
2023/04/26 02:03:39;;;;;;;12.43;11.82;;;;;;;;;;5039008;28;20395;-63
2023/04/26 02:06:04;;;;;;;12.45;11.85;;;;;;;;;;5045616;28;20461;-63
2023/04/26 02:08:29;;;;;;;12.38;11.75;;;;;;;;;;5046417;28;20017;-63
2023/04/26 02:10:55;;;;;;;12.10;11.50;;;;;;;;;;5050332;28;20017;-63
2023/04/26 02:13:20;;;;;;;12.98;12.27;;;;;;;;;;5048193;28;20025;-63
2023/04/26 02:15:46;;;;;;;12.10;11.50;;;;;;;;;;5055173;28;20032;-63
2023/04/26 02:18:11;;;;;;;12.43;11.80;;;;;;;;;;5046573;28;20024;-63
2023/04/26 02:20:41;;;;;;;12.10;11.50;;;;;;;;;;5043392;28;20021;-63
2023/04/26 02:23:07;;;;;;;12.40;11.80;;;;;;;;;;5048433;28;20082;-63
2023/04/26 02:25:32;;;;;;;12.63;11.93;;;;;;;;;;5047601;28;20108;-63
2023/04/26 02:27:58;;;;;;;12.55;11.93;;;;;;;;;;5048308;28;20032;-63
2023/04/26 02:30:23;;;;;;;12.73;12.02;;;;;;;;;;5044028;28;20029;-63
2023/04/26 02:32:48;;;;;;;12.07;11.48;;;;;;;;;;5045503;28;20029;-62
2023/04/26 02:35:14;;;;;;;12.50;11.85;;;;;;;;;;5046463;28;20033;-63
2023/04/26 02:37:39;;;;;;;12.70;12.00;;;;;;;;;;5050524;28;20033;-63
2023/04/26 02:40:05;;;;;;;12.15;11.55;;;;;;;;;;5047454;28;20499;-60
2023/04/26 02:42:30;;;;;;;12.88;12.18;;;;;;;;;;5046836;28;20024;-62
2023/04/26 02:44:56;;;;;;;12.30;11.70;;;;;;;;;;5048094;28;20043;-62
2023/04/26 02:47:21;;;;;;;12.85;12.15;;;;;;;;;;5046384;28;20031;-63
2023/04/26 02:49:46;;;;;;;12.40;11.77;;;;;;;;;;5048644;28;20020;-63
2023/04/26 02:52:12;;;;;;;12.68;12.00;;;;;;;;;;5045820;28;20017;-63
2023/04/26 02:54:37;;;;;;;12.02;11.43;;;;;;;;;;5048943;28;20020;-63
2023/04/26 02:57:02;;;;;;;11.95;11.35;;;;;;;;;;5048365;28;20489;-63
2023/04/26 02:59:28;;;;;;;12.60;11.95;;;;;;;;;;5042990;28;20025;-64
2023/04/26 03:01:53;;;;;;;13.10;12.40;;;;;;;;;;5041795;28;20080;-63
2023/04/26 03:04:19;;;;;;;12.32;11.73;;;;;;;;;;5047133;28;20036;-62
2023/04/26 03:06:44;;;;;;;12.32;11.73;;;;;;;;;;5042565;28;20075;-63
2023/04/26 03:09:10;;;;;;;12.38;11.77;;;;;;;;;;5047790;28;20060;-63
2023/04/26 03:11:35;;;;;;;12.15;11.55;;;;;;;;;;5047894;28;20118;-63
2023/04/26 03:14:00;;;;;;;13.23;12.52;;;;;;;;;;5046806;28;20668;-62
2023/04/26 03:16:26;;;;;;;12.63;11.93;;;;;;;;;;5040534;28;20123;-62
2023/04/26 03:18:52;;;;;;;12.52;11.82;;;;;;;;;;5045030;28;20025;-62
2023/04/26 03:21:18;;;;;;;12.65;11.95;;;;;;;;;;5047706;28;20036;-62
2023/04/26 03:23:43;;;;;;;11.98;11.38;;;;;;;;;;5047305;28;20408;-64
2023/04/26 03:26:09;;;;;;;12.27;11.68;;;;;;;;;;5047854;28;20049;-64
2023/04/26 03:28:34;;;;;;;13.55;12.75;;;;;;;;;;5047166;28;20033;-64
2023/04/26 03:31:00;;;;;;;12.10;11.50;;;;;;;;;;5045331;28;20491;-63
2023/04/26 03:33:25;;;;;;;12.45;11.80;;;;;;;;;;5048906;28;20032;-64
2023/04/26 03:35:51;;;;;;;12.32;11.73;;;;;;;;;;5053106;28;20029;-63
2023/04/26 03:38:16;;;;;;;12.40;11.80;;;;;;;;;;5049441;28;20777;-64
2023/04/26 03:40:41;;;;;;;13.00;12.30;;;;;;;;;;5050973;28;20048;-64
2023/04/26 03:43:07;;;;;;;12.35;11.75;;;;;;;;;;5053107;28;20055;-64
2023/04/26 03:45:32;;;;;;;13.40;12.63;;;;;;;;;;5046982;28;20025;-64
2023/04/26 03:47:57;;;;;;;12.70;12.00;;;;;;;;;;5050566;28;20021;-64
2023/04/26 03:50:23;;;;;;;14.20;13.32;;;;;;;;;;5042524;28;20025;-63
2023/04/26 03:52:48;;;;;;;12.93;12.23;;;;;;;;;;5054257;28;20397;-63
2023/04/26 03:55:14;;;;;;;13.20;12.50;;;;;;;;;;5050649;28;20028;-63
2023/04/26 03:57:39;;;;;;;12.40;11.80;;;;;;;;;;5050430;28;20025;-63
2023/04/26 04:00:12;;;;;;;13.10;12.40;;;;;;;;;;5050379;28;20086;-63
2023/04/26 04:02:38;;;;;;;13.23;12.52;;;;;;;;;;5047916;28;20546;-63
2023/04/26 04:05:03;;;;;;;13.57;12.80;;;;;;;;;;5048649;28;20024;-63
2023/04/26 04:07:31;;;;;;;13.45;12.73;;;;;;;;;;5042852;28;20108;-63
2023/04/26 04:09:56;;;;;;;14.18;13.38;;;;;;;;;;5046858;28;20107;-63
2023/04/26 04:12:21;;;;;;;13.63;12.90;;;;;;;;;;5048814;28;20512;-63
2023/04/26 04:14:47;;;;;;;13.18;12.48;;;;;;;;;;5050577;28;20503;-63
2023/04/26 04:17:12;;;;;;;14.18;13.32;;;;;;;;;;5050461;28;20025;-63
2023/04/26 04:19:37;;;;;;;14.73;13.82;;;;;;;;;;5045873;28;20503;-63
2023/04/26 04:22:03;;;;;;;15.15;14.15;;;;;;;;;;5045822;28;20115;-63
2023/04/26 04:24:28;;;;;;;14.15;13.35;;;;;;;;;;5049086;28;20027;-63
2023/04/26 04:26:54;;;;;;;13.13;12.43;;;;;;;;;;5047092;28;20025;-62
2023/04/26 04:29:20;;;;;;;14.13;13.32;;;;;;;;;;5045361;28;20108;-63
2023/04/26 04:31:45;;;;;;;14.73;13.80;;;;;;;;;;5049918;28;20676;-63
2023/04/26 04:34:10;;;;;;;13.80;13.00;;;;;;;;;;5045401;28;20099;-62
2023/04/26 04:36:37;;;;;;;14.95;14.02;;;;;;;;;;5040995;28;20036;-62
2023/04/26 04:39:03;;;;;;;14.00;13.20;;;;;;;;;;5038328;28;20044;-60
2023/04/26 04:41:28;;;;;;;14.10;13.30;;;;;;;;;;5044432;28;20025;-61
2023/04/26 04:43:54;;;;;;;14.30;13.48;;;;;;;;;;5046025;28;20024;-61
2023/04/26 04:46:19;;;;;;;16.50;15.35;;;;;;;;;;5048132;28;20106;-61
2023/04/26 04:48:44;;;;;;;14.07;13.27;;;;;;;;;;5048324;28;20021;-60
2023/04/26 04:51:10;;;;;;;15.43;14.43;;;;;;;;;;5045617;28;20029;-61
2023/04/26 04:53:36;;;;;;;13.30;12.60;;;;;;;;;;5048109;28;20028;-61
2023/04/26 04:56:01;;;;;;;14.15;13.35;;;;;;;;;;5043367;28;20472;-61
2023/04/26 04:58:27;;;;;;;14.82;13.93;;;;;;;;;;5037442;28;20052;-63
2023/04/26 05:00:55;;;;;;;14.18;13.32;;;;;;;;;;5043366;28;20098;-61
2023/04/26 05:03:21;;;;;;;13.13;12.43;;;;;;;;;;5040991;28;20024;-61
2023/04/26 05:05:46;;;;;;;13.52;12.80;;;;;;;;;;5046227;28;20032;-61
2023/04/26 05:08:12;;;;;;;13.50;12.77;;;;;;;;;;5044232;28;20488;-61
2023/04/26 05:10:37;;;;;;;13.55;12.80;;;;;;;;;;5042120;28;20045;-63
2023/04/26 05:13:03;;;;;;;14.63;13.73;;;;;;;;;;5041123;28;20025;-64
2023/04/26 05:15:28;;;;;;;14.38;13.50;;;;;;;;;;5046386;28;20039;-64
2023/04/26 05:17:54;;;;;;;14.38;13.48;;;;;;;;;;5046792;28;20029;-64
2023/04/26 05:20:20;;;;;;;14.75;13.85;;;;;;;;;;5046026;28;20025;-64
2023/04/26 05:22:45;;;;;;;14.00;13.20;;;;;;;;;;5046596;28;20163;-64
2023/04/26 05:25:12;;;;;;;13.88;13.05;;;;;;;;;;5047315;28;20028;-63
2023/04/26 05:27:37;;;;;;;13.85;13.05;;;;;;;;;;5040859;28;20032;-63
2023/04/26 05:30:04;;;;;;;13.95;13.15;;;;;;;;;;5042598;28;20032;-63
2023/04/26 05:32:29;;;;;;;13.90;13.10;;;;;;;;;;5044861;28;20049;-62
2023/04/26 05:34:54;;;;;;;15.18;14.18;;;;;;;;;;5048042;28;20057;-62
2023/04/26 05:37:20;;;;;;;14.63;13.73;;;;;;;;;;5046377;28;20025;-64
2023/04/26 05:39:46;;;;;;;15.43;14.43;;;;;;;;;;5045263;28;20025;-64
2023/04/26 05:42:11;;;;;;;13.90;13.10;;;;;;;;;;5040137;28;20044;-64
2023/04/26 05:44:37;;;;;;;13.98;13.18;;;;;;;;;;5046330;28;20033;-64
2023/04/26 05:47:02;;;;;;;14.75;13.85;;;;;;;;;;5042132;28;20565;-63
2023/04/26 05:49:27;;;;;;;15.30;14.30;;;;;;;;;;5048365;28;20037;-64
2023/04/26 05:51:52;;;;;;;17.05;15.85;;;;;;;;;;5041180;28;20529;-62
2023/04/26 05:54:18;;;;;;;14.00;13.20;;;;;;;;;;5047677;28;20016;-63
2023/04/26 05:56:43;;;;;;;13.25;12.55;;;;;;;;;;5046635;28;20037;-63
2023/04/26 05:59:08;;;;;;;13.27;12.57;;;;;;;;;;5041805;28;20685;-63
2023/04/26 06:01:34;;;;;;;13.55;12.82;;;;;;;;;;5045403;28;20490;-62
2023/04/26 06:03:59;;;;;;;13.73;12.93;;;;;;;;;;5041756;28;20021;-63
2023/04/26 06:06:27;;;;;;;15.85;14.75;;;;;;;;;;5038728;28;20046;-63
2023/04/26 06:08:52;;;;;;;13.50;12.80;;;;;;;;;;5040780;28;20017;-63
2023/04/26 06:11:18;;;;;;;16.10;14.98;;;;;;;;;;5045835;28;20032;-64
2023/04/26 06:13:43;;;;;;;14.02;13.23;;;;;;;;;;5040756;28;20022;-63
2023/04/26 06:16:08;;;;;;;13.75;12.95;;;;;;;;;;5046271;28;20037;-63
2023/04/26 06:18:34;;;;;;;14.85;13.95;;;;;;;;;;5046606;28;20033;-63
2023/04/26 06:20:59;;;;;;;12.70;12.10;;;;;;;;;;5042050;28;20080;-63
2023/04/26 06:23:25;;;;;;;14.25;13.43;;;;;;;;;;5051618;28;20028;-63
2023/04/26 06:25:50;;;;;;;14.68;13.75;;;;;;;;;;5045051;28;20447;-63
2023/04/26 06:28:15;;;;;;;15.95;14.85;;;;;;;;;;5040614;28;20055;-64
2023/04/26 06:30:41;;;;;;;14.95;13.98;;;;;;;;;;5043904;28;20016;-65
2023/04/26 06:33:08;;;;;;;15.23;14.23;;;;;;;;;;5039318;28;20030;-66
2023/04/26 06:35:38;;;;;;;14.93;14.02;;;;;;;;;;5045355;28;20111;-64
2023/04/26 06:38:03;;;;;;;15.23;14.23;;;;;;;;;;5034842;28;20024;-67
2023/04/26 06:40:29;;;;;;;14.95;14.00;;;;;;;;;;5033455;28;20498;-67
2023/04/26 06:42:56;;;;;;;14.88;13.93;;;;;;;;;;5037880;28;20029;-67
2023/04/26 06:45:21;;;;;;;16.00;14.90;;;;;;;;;;5028631;28;20392;-65
2023/04/26 06:47:46;;;;;;;15.85;14.75;;;;;;;;;;5037151;28;20024;-65
2023/04/26 06:50:11;;;;;;;15.60;14.60;;;;;;;;;;5037235;28;20115;-65
2023/04/26 06:52:37;;;;;;;16.00;14.93;;;;;;;;;;5046370;28;20680;-67
2023/04/26 06:55:03;;;;;;;18.48;17.08;;;;;;;;;;5038455;28;20036;-67
2023/04/26 06:57:28;;;;;;;16.13;15.02;;;;;;;;;;5033890;28;20037;-67
2023/04/26 06:59:53;;;;;;;14.90;14.00;;;;;;;;;;5044025;28;20100;-64
2023/04/26 07:02:19;;;;;;;14.40;13.55;;;;;;;;;;5040582;28;20134;-67
2023/04/26 07:04:44;;;;;;;15.35;14.35;;;;;;;;;;5046620;28;20559;-67
2023/04/26 07:07:10;;;;;;;15.50;14.50;;;;;;;;;;5044393;28;20104;-66
2023/04/26 07:09:36;;;;;;;14.88;13.98;;;;;;;;;;5044296;28;20484;-67
2023/04/26 07:12:01;;;;;;;15.80;14.77;;;;;;;;;;5039780;28;20024;-67
2023/04/26 07:14:26;;;;;;;14.68;13.77;;;;;;;;;;5031611;28;20492;-64
2023/04/26 07:16:52;;;;;;;14.93;13.98;;;;;;;;;;5039920;28;20021;-64
2023/04/26 07:19:18;;;;;;;14.75;13.85;;;;;;;;;;5046694;28;20056;-65
2023/04/26 07:21:43;;;;;;;14.55;13.65;;;;;;;;;;5041369;28;20503;-63
2023/04/26 07:24:09;;;;;;;15.43;14.43;;;;;;;;;;5045998;28;20013;-62
2023/04/26 07:26:35;;;;;;;14.18;13.38;;;;;;;;;;5044629;28;20052;-62
2023/04/26 07:29:01;;;;;;;15.02;14.13;;;;;;;;;;5047493;28;20017;-63
2023/04/26 07:31:26;;;;;;;14.73;13.82;;;;;;;;;;5047598;28;20460;-64
2023/04/26 07:33:51;;;;;;;20.20;18.58;;;;;;;;;;5044210;28;20017;-63
2023/04/26 07:36:17;;;;;;;19.35;17.80;;;;;;;;;;5046926;28;20445;-63
2023/04/26 07:38:42;;;;;;;15.13;14.20;;;;;;;;;;5047173;28;20017;-62
2023/04/26 07:41:07;;;;;;;15.90;14.85;;;;;;;;;;5042046;28;20021;-62
2023/04/26 07:43:32;;;;;;;13.98;13.18;;;;;;;;;;5046377;28;20017;-63
2023/04/26 07:45:58;;;;;;;15.13;14.20;;;;;;;;;;5042895;28;20487;-63
2023/04/26 07:48:24;;;;;;;16.77;15.57;;;;;;;;;;5042619;28;20032;-63
2023/04/26 07:50:50;;;;;;;15.60;14.60;;;;;;;;;;5044195;28;20021;-63
2023/04/26 07:53:16;;;;;;;16.67;15.48;;;;;;;;;;5042106;28;20803;-63
2023/04/26 07:55:41;;;;;;;14.32;13.48;;;;;;;;;;5041922;28;20065;-63
2023/04/26 07:58:07;;;;;;;15.35;14.35;;;;;;;;;;5045483;28;20059;-63
2023/04/26 08:00:32;;;;;;;14.32;13.52;;;;;;;;;;5049646;28;20025;-63
2023/04/26 08:02:57;;;;;;;15.38;14.38;;;;;;;;;;5047406;28;20127;-63
2023/04/26 08:05:22;;;;;;;15.02;14.10;;;;;;;;;;5044336;28;20070;-62
2023/04/26 08:07:49;;;;;;;15.15;14.18;;;;;;;;;;5046408;28;20062;-62
2023/04/26 08:10:14;;;;;;;14.00;13.20;;;;;;;;;;5042835;28;20017;-62
2023/04/26 08:12:40;;;;;;;14.88;13.98;;;;;;;;;;5038051;28;20028;-63
2023/04/26 08:15:05;;;;;;;14.63;13.73;;;;;;;;;;5043223;28;20558;-63
2023/04/26 08:17:31;;;;;;;14.40;13.55;;;;;;;;;;5035476;28;20025;-64
2023/04/26 08:19:56;;;;;;;14.27;13.45;;;;;;;;;;5046146;28;20063;-64
2023/04/26 08:22:22;;;;;;;15.02;14.10;;;;;;;;;;5047380;28;20021;-64
2023/04/26 08:24:49;;;;;;;14.13;13.32;;;;;;;;;;5043213;28;20094;-63
2023/04/26 08:27:14;;;;;;;17.30;16.08;;;;;;;;;;5036203;28;20525;-64
2023/04/26 08:29:40;;;;;;;15.40;14.40;;;;;;;;;;5048986;28;20025;-63
2023/04/26 08:32:06;;;;;;;18.30;16.90;;;;;;;;;;5039649;28;20028;-65
2023/04/26 08:34:31;;;;;;;15.43;14.43;;;;;;;;;;5048697;28;20072;-64
2023/04/26 08:36:56;;;;;;;16.25;15.15;;;;;;;;;;5041863;28;20026;-64
2023/04/26 08:39:22;;;;;;;14.75;13.85;;;;;;;;;;5040142;28;20358;-65
2023/04/26 08:41:56;;;;;;;14.52;13.65;;;;;;;;;;5038160;28;20413;-65
2023/04/26 08:44:24;;;;;;;16.25;15.15;;;;;;;;;;5035828;28;20025;-65
2023/04/26 08:46:52;;;;;;;14.55;13.70;;;;;;;;;;5034110;28;20082;-65
2023/04/26 08:49:17;;;;;;;15.35;14.38;;;;;;;;;;5035345;28;20045;-65
2023/04/26 08:51:44;;;;;;;14.00;13.20;;;;;;;;;;5030552;28;20018;-65
2023/04/26 08:54:10;;;;;;;15.50;14.50;;;;;;;;;;5034946;28;20041;-65
2023/04/26 08:56:35;;;;;;;15.68;14.63;;;;;;;;;;5037921;28;20021;-64
2023/04/26 08:59:01;;;;;;;15.10;14.20;;;;;;;;;;5041882;28;20021;-64
2023/04/26 09:01:27;;;;;;;16.08;14.98;;;;;;;;;;5037255;28;20547;-67
2023/04/26 09:03:53;;;;;;;15.30;14.30;;;;;;;;;;5044781;28;20025;-65
2023/04/26 09:06:19;;;;;;;16.42;15.27;;;;;;;;;;5039594;28;20493;-66
2023/04/26 09:08:44;;;;;;;14.77;13.88;;;;;;;;;;5035023;28;20527;-64
2023/04/26 09:11:10;;;;;;;14.75;13.85;;;;;;;;;;5039152;28;20023;-66
2023/04/26 09:13:35;;;;;;;16.80;15.60;;;;;;;;;;5043217;28;20400;-64
2023/04/26 09:16:00;;;;;;;15.32;14.32;;;;;;;;;;5048748;28;20024;-64
2023/04/26 09:18:26;;;;;;;16.42;15.32;;;;;;;;;;5046267;28;20025;-64
2023/04/26 09:21:07;;;;;;;15.50;14.50;;;;;;;;;;5039381;28;20033;-64
2023/04/26 09:23:33;;;;;;;16.30;15.20;;;;;;;;;;5031585;28;20033;-64
2023/04/26 09:26:34;;;;;;;14.85;13.93;;;;;;;;;;5039502;28;20024;-63
2023/04/26 09:29:12;;;;;;;15.48;14.45;;;;;;;;;;4989819;28;20117;-64
2023/04/26 09:31:39;;;;;;;16.00;14.90;;;;;;;;;;5026479;28;20052;-64
2023/04/26 09:34:05;;;;;;;14.70;13.80;;;;;;;;;;5039742;28;20031;-64
2023/04/26 09:36:31;;;;;;;14.27;13.40;;;;;;;;;;5032233;28;20028;-64
2023/04/26 09:38:56;;;;;;;15.07;14.10;;;;;;;;;;5045360;28;20052;-68
2023/04/26 09:41:21;;;;;;;17.88;16.52;;;;;;;;;;5042535;28;20598;-67
2023/04/26 09:43:49;;;;;;;14.35;13.45;;;;;;;;;;5036152;28;20108;-65
2023/04/26 09:46:21;;;;;;;16.63;15.43;;;;;;;;;;5039694;28;20033;-67
2023/04/26 09:48:59;;;;;;;15.27;14.27;;;;;;;;;;5041122;28;20037;-64
2023/04/26 09:51:24;;;;;;;17.63;16.33;;;;;;;;;;5038371;28;20595;-66
2023/04/26 09:53:49;;;;;;;15.88;14.82;;;;;;;;;;5039171;28;20100;-65
2023/04/26 09:56:18;;;;;;;14.63;13.73;;;;;;;;;;5036427;28;20060;-65
2023/04/26 09:58:47;;;;;;;15.68;14.60;;;;;;;;;;5040677;28;20096;-65
2023/04/26 10:01:16;;;;;;;16.33;15.18;;;;;;;;;;5039968;28;20437;-65
2023/04/26 10:03:42;;;;;;;16.30;15.20;;;;;;;;;;5037526;28;20086;-65
2023/04/26 10:06:07;;;;;;;15.27;14.30;;;;;;;;;;5039387;28;20029;-65
2023/04/26 10:08:33;;;;;;;16.60;15.43;;;;;;;;;;5033128;28;20354;-64
2023/04/26 10:11:01;;;;;;;14.00;13.20;;;;;;;;;;5043050;28;20380;-65
2023/04/26 10:13:26;;;;;;;16.25;15.15;;;;;;;;;;5036576;28;20082;-64
2023/04/26 10:15:52;;;;;;;16.20;15.10;;;;;;;;;;5038477;28;20033;-65
2023/04/26 10:18:17;;;;;;;14.45;13.55;;;;;;;;;;5035159;28;20397;-65
2023/04/26 10:20:45;;;;;;;16.15;15.02;;;;;;;;;;5038345;28;20108;-65
2023/04/26 10:23:20;;;;;;;15.57;14.57;;;;;;;;;;5041536;28;20082;-64
2023/04/26 10:25:46;;;;;;;15.20;14.20;;;;;;;;;;5040982;28;20079;-64
2023/04/26 10:28:11;;;;;;;15.02;14.05;;;;;;;;;;5031549;28;20021;-63
2023/04/26 10:30:56;;;;;;;15.25;14.25;;;;;;;;;;5036603;28;20095;-64
2023/04/26 10:33:22;;;;;;;14.65;13.75;;;;;;;;;;5041228;28;20052;-66
2023/04/26 10:36:07;;;;;;;15.68;14.68;;;;;;;;;;5043220;28;20021;-65
2023/04/26 10:38:33;;;;;;;14.98;14.00;;;;;;;;;;5045872;28;20059;-64
2023/04/26 10:41:17;;;;;;;14.70;13.80;;;;;;;;;;5050434;28;20029;-66
2023/04/26 10:43:42;;;;;;;14.25;13.35;;;;;;;;;;5051189;28;20025;-63
2023/04/26 10:46:26;;;;;;;16.58;15.43;;;;;;;;;;5046054;28;20472;-64
2023/04/26 10:48:51;;;;;;;15.00;14.03;;;;;;;;;;5045349;28;20025;-67
2023/04/26 10:51:17;;;;;;;14.73;13.82;;;;;;;;;;5040542;28;20443;-67
2023/04/26 10:53:45;;;;;;;14.88;13.95;;;;;;;;;;5045185;28;20048;-66
2023/04/26 10:56:31;;;;;;;15.55;14.55;;;;;;;;;;5039884;28;20083;-66
2023/04/26 10:59:08;;;;;;;15.50;14.48;;;;;;;;;;5041833;28;20033;-66
2023/04/26 11:01:34;;;;;;;13.98;13.18;;;;;;;;;;5047260;28;20522;-65
2023/04/26 11:04:00;;;;;;;14.70;13.80;;;;;;;;;;5042915;28;20029;-65
2023/04/26 11:06:25;;;;;;;15.38;14.38;;;;;;;;;;5046153;28;20036;-65
2023/04/26 11:08:51;;;;;;;13.73;12.93;;;;;;;;;;5043985;28;20127;-64
2023/04/26 11:11:20;;;;;;;14.15;13.30;;;;;;;;;;5040106;28;20028;-64
2023/04/26 11:13:45;;;;;;;13.95;13.15;;;;;;;;;;5042339;28;20025;-63
2023/04/26 11:16:15;;;;;;;13.75;12.95;;;;;;;;;;5039953;28;20028;-63
2023/04/26 11:18:44;;;;;;;13.32;12.63;;;;;;;;;;5038882;28;20096;-63
2023/04/26 11:21:11;;;;;;;14.57;13.68;;;;;;;;;;5038232;28;20032;-62
2023/04/26 11:23:36;;;;;;;13.30;12.60;;;;;;;;;;5038647;28;20099;-64
2023/04/26 11:26:07;;;;;;;13.00;12.30;;;;;;;;;;5052075;28;20047;-64
2023/04/26 11:28:33;;;;;;;14.05;13.25;;;;;;;;;;5049133;28;20052;-62
2023/04/26 11:30:58;;;;;;;15.27;14.30;;;;;;;;;;5045351;28;20036;-63
2023/04/26 11:33:24;;;;;;;14.10;13.30;;;;;;;;;;5048662;28;20092;-64
2023/04/26 11:35:54;;;;;;;13.20;12.50;;;;;;;;;;5048852;28;20021;-63
2023/04/26 11:38:26;;;;;;;13.77;12.98;;;;;;;;;;5053797;28;20029;-65
2023/04/26 11:40:55;;;;;;;12.95;12.25;;;;;;;;;;5046546;28;20207;-64
2023/04/26 11:43:21;;;;;;;14.05;13.25;;;;;;;;;;5052448;28;20049;-64
2023/04/26 11:45:46;;;;;;;14.65;13.75;;;;;;;;;;5061113;28;20048;-64
2023/04/26 11:48:12;;;;;;;13.30;12.60;;;;;;;;;;5050066;28;20017;-64
2023/04/26 11:50:38;;;;;;;12.90;12.30;;;;;;;;;;5048171;28;20026;-64
2023/04/26 11:53:05;;;;;;;14.77;13.88;;;;;;;;;;5046544;28;20029;-64
2023/04/26 11:55:32;;;;;;;14.35;13.55;;;;;;;;;;5064729;28;20040;-64
2023/04/26 11:57:57;;;;;;;14.43;13.57;;;;;;;;;;5055450;28;20530;-64
2023/04/26 12:00:23;;;;;;;13.55;12.85;;;;;;;;;;5052724;28;20041;-64
2023/04/26 12:02:56;;;;;;;13.43;12.73;;;;;;;;;;5067272;28;20051;-64
2023/04/26 12:05:25;;;;;;;14.13;13.32;;;;;;;;;;5045075;28;20109;-64
2023/04/26 12:07:52;;;;;;;14.30;13.50;;;;;;;;;;5054851;28;20016;-64
2023/04/26 12:10:18;;;;;;;14.80;13.90;;;;;;;;;;5055990;28;20064;-63
2023/04/26 12:12:46;;;;;;;13.57;12.88;;;;;;;;;;5060242;28;20017;-65
2023/04/26 12:15:12;;;;;;;15.27;14.32;;;;;;;;;;5053298;28;20059;-64
2023/04/26 12:17:37;;;;;;;14.68;13.77;;;;;;;;;;5052504;28;20056;-65
2023/04/26 12:20:09;;;;;;;13.30;12.60;;;;;;;;;;5059415;28;20013;-64
2023/04/26 12:22:35;;;;;;;13.45;12.75;;;;;;;;;;5043514;28;20025;-65
2023/04/26 12:25:05;;;;;;;13.85;13.05;;;;;;;;;;5052331;28;20448;-65
2023/04/26 12:27:30;;;;;;;13.10;12.43;;;;;;;;;;5070741;28;20024;-65
2023/04/26 12:29:56;;;;;;;14.23;13.43;;;;;;;;;;5044602;28;20017;-64
2023/04/26 12:32:21;;;;;;;14.93;14.02;;;;;;;;;;5059874;28;20020;-65
2023/04/26 12:34:47;;;;;;;14.07;13.27;;;;;;;;;;5050815;28;20017;-65
2023/04/26 12:37:12;;;;;;;12.93;12.25;;;;;;;;;;5053949;28;20476;-65
2023/04/26 12:39:37;;;;;;;13.15;12.45;;;;;;;;;;5052257;28;20029;-65
2023/04/26 12:42:03;;;;;;;13.90;13.10;;;;;;;;;;5052573;28;20025;-65
2023/04/26 12:44:28;;;;;;;15.18;14.27;;;;;;;;;;5048774;28;20387;-66
2023/04/26 12:46:53;;;;;;;17.02;15.82;;;;;;;;;;5035974;28;20697;-65
2023/04/26 12:49:19;;;;;;;15.38;14.38;;;;;;;;;;5044522;28;22117;-66
2023/04/26 12:51:45;;;;;;;15.35;14.38;;;;;;;;;;5045008;28;20421;-66
2023/04/26 12:54:10;;;;;;;16.25;15.15;;;;;;;;;;5042932;28;20021;-65
2023/04/26 12:56:39;;;;;;;15.98;14.90;;;;;;;;;;5045244;28;20113;-63
2023/04/26 12:59:05;;;;;;;14.95;14.05;;;;;;;;;;5039668;28;20100;-65
2023/04/26 13:01:30;;;;;;;15.27;14.27;;;;;;;;;;5044485;28;20052;-66
2023/04/26 13:03:58;;;;;;;14.70;13.80;;;;;;;;;;5039988;28;20036;-65
2023/04/26 13:06:23;;;;;;;14.85;13.95;;;;;;;;;;5045500;28;20036;-67
2023/04/26 13:08:49;;;;;;;14.35;13.52;;;;;;;;;;5040522;28;20022;-66
2023/04/26 13:11:15;;;;;;;14.52;13.65;;;;;;;;;;5048133;28;20078;-67
2023/04/26 13:13:40;;;;;;;14.27;13.48;;;;;;;;;;5047131;28;20021;-71
2023/04/26 13:16:06;;;;;;;14.90;14.00;;;;;;;;;;5039478;28;20059;-66
2023/04/26 13:18:31;;;;;;;15.57;14.57;;;;;;;;;;5044396;28;20040;-68
2023/04/26 13:20:56;;;;;;;16.95;15.75;;;;;;;;;;5042351;28;20285;-69
2023/04/26 13:23:22;;;;;;;14.82;13.93;;;;;;;;;;5040440;28;20033;-67
2023/04/26 13:25:47;;;;;;;15.45;14.45;;;;;;;;;;5044523;28;20039;-72
2023/04/26 13:28:12;;;;;;;14.32;13.48;;;;;;;;;;5048592;28;20021;-67
2023/04/26 13:30:38;;;;;;;14.27;13.48;;;;;;;;;;5049831;28;20020;-68
2023/04/26 13:33:03;;;;;;;15.95;14.88;;;;;;;;;;5042697;28;20025;-69
2023/04/26 13:35:29;;;;;;;14.77;13.88;;;;;;;;;;5046831;28;20024;-67
2023/04/26 13:37:55;;;;;;;14.65;13.77;;;;;;;;;;5054585;28;20170;-68
2023/04/26 13:40:21;;;;;;;15.05;14.15;;;;;;;;;;5047730;28;20119;-68
2023/04/26 13:42:46;;;;;;;15.20;14.25;;;;;;;;;;5040374;28;20029;-63
2023/04/26 13:45:12;;;;;;;16.30;15.20;;;;;;;;;;5037430;28;20025;-65
2023/04/26 13:47:37;;;;;;;13.82;13.02;;;;;;;;;;5041274;28;20024;-64
2023/04/26 13:50:03;;;;;;;14.52;13.63;;;;;;;;;;5044589;28;20255;-65
2023/04/26 13:52:28;;;;;;;15.68;14.68;;;;;;;;;;5044112;28;20020;-64
2023/04/26 13:54:54;;;;;;;14.63;13.73;;;;;;;;;;5048847;28;20033;-63
2023/04/26 13:57:20;;;;;;;15.45;14.50;;;;;;;;;;5041601;28;20028;-65
2023/04/26 13:59:46;;;;;;;15.00;14.10;;;;;;;;;;5045865;28;20067;-66
2023/04/26 14:02:11;;;;;;;15.20;14.23;;;;;;;;;;5043925;28;20045;-64
2023/04/26 14:04:37;;;;;;;15.32;14.32;;;;;;;;;;5044775;28;20030;-64
2023/04/26 14:07:02;;;;;;;14.88;13.98;;;;;;;;;;5048876;28;20116;-64
2023/04/26 14:09:27;;;;;;;15.20;14.25;;;;;;;;;;5046043;28;20021;-64
2023/04/26 14:11:53;;;;;;;15.65;14.65;;;;;;;;;;5042137;28;20116;-64